Time;durP1;ratioP1;P1;durP2;ratioP2;P2;SDS_P1;SDS_P2;PMS_P1;PMS_P2;Temp;Humidity;BMP_temperature;BMP_pressure;BME280_temperature;BME280_humidity;BME280_pressure;Samples;Min_cycle;Max_cycle;Signal;HPM_P1;HPM_P2
2021/01/18 00:01:08;;;;;;;10.93;9.85;;;25.10;60.70;;;;;;5012022;28;20651;-54
2021/01/18 00:03:40;;;;;;;12.15;9.98;;;25.10;60.70;;;;;;4977032;28;20229;-51
2021/01/18 00:06:14;;;;;;;12.40;10.48;;;25.10;60.80;;;;;;4955523;28;20251;-51
2021/01/18 00:08:45;;;;;;;11.55;10.10;;;25.10;60.80;;;;;;4925440;28;20728;-55
2021/01/18 00:11:16;;;;;;;13.73;12.32;;;25.00;60.60;;;;;;4944345;28;20703;-52
2021/01/18 00:13:47;;;;;;;13.95;12.38;;;25.10;60.80;;;;;;4905952;28;20255;-51
2021/01/18 00:16:19;;;;;;;12.20;10.98;;;25.00;60.80;;;;;;4896947;28;20247;-53
2021/01/18 00:18:50;;;;;;;13.15;11.75;;;25.00;60.80;;;;;;4870783;28;20228;-53
2021/01/18 00:21:21;;;;;;;11.60;10.40;;;25.00;60.80;;;;;;4870261;28;20290;-51
2021/01/18 00:23:52;;;;;;;12.13;10.23;;;25.00;60.80;;;;;;4870716;29;20256;-51
2021/01/18 00:26:23;;;;;;;14.65;11.40;;;25.00;60.80;;;;;;4870409;29;20232;-53
2021/01/18 00:28:53;;;;;;;10.55;9.55;;;25.00;60.80;;;;;;4869131;28;20906;-53
2021/01/18 00:31:25;;;;;;;12.77;11.25;;;25.00;60.90;;;;;;4874900;28;20254;-50
2021/01/18 00:33:56;;;;;;;13.35;11.48;;;25.00;61.00;;;;;;4870024;28;20738;-51
2021/01/18 00:36:26;;;;;;;12.35;11.05;;;25.00;61.00;;;;;;4869864;29;20686;-50
2021/01/18 00:38:57;;;;;;;14.38;11.00;;;25.00;60.80;;;;;;4920837;28;20228;-50
2021/01/18 00:41:28;;;;;;;12.77;11.57;;;25.00;60.80;;;;;;4962225;28;20241;-55
2021/01/18 00:43:58;;;;;;;14.48;11.63;;;25.00;60.80;;;;;;4967458;28;20258;-56
2021/01/18 00:46:30;;;;;;;13.95;11.85;;;25.00;60.80;;;;;;4965257;28;20232;-54
2021/01/18 00:49:01;;;;;;;14.52;12.98;;;25.00;61.00;;;;;;4963797;28;20309;-56
2021/01/18 00:51:41;;;;;;;18.70;13.18;;;25.00;61.00;;;;;;4959020;28;20323;-57
2021/01/18 00:54:11;;;;;;;12.98;11.68;;;25.00;60.80;;;;;;4959402;28;20622;-56
2021/01/18 00:56:42;;;;;;;14.13;12.07;;;25.00;60.80;;;;;;4964606;28;20337;-57
2021/01/18 00:59:12;;;;;;;13.88;12.35;;;25.10;60.90;;;;;;4964534;28;20230;-56
2021/01/18 01:01:44;;;;;;;14.23;12.80;;;25.10;60.80;;;;;;4958059;28;20237;-55
2021/01/18 01:04:15;;;;;;;14.77;13.25;;;25.10;60.90;;;;;;4959837;28;20279;-54
2021/01/18 01:06:45;;;;;;;14.30;12.70;;;25.10;60.60;;;;;;4961818;28;20734;-53
2021/01/18 01:09:16;;;;;;;14.40;12.85;;;25.10;60.60;;;;;;4963565;28;20278;-53
2021/01/18 01:11:46;;;;;;;16.30;14.73;;;25.20;60.70;;;;;;4960246;28;20603;-56
2021/01/18 01:14:17;;;;;;;17.25;15.45;;;25.20;60.60;;;;;;4956432;28;20241;-55
2021/01/18 01:16:49;;;;;;;16.55;13.90;;;25.20;60.50;;;;;;4956988;28;20641;-53
2021/01/18 01:19:19;;;;;;;14.65;13.23;;;25.30;60.20;;;;;;4961667;28;20229;-50
2021/01/18 01:21:53;;;;;;;16.00;14.07;;;25.30;60.30;;;;;;4957567;28;20256;-51
2021/01/18 01:24:23;;;;;;;18.75;16.90;;;25.30;59.90;;;;;;4955259;28;20312;-55
2021/01/18 01:26:54;;;;;;;21.35;19.15;;;25.30;59.80;;;;;;4962638;28;20315;-54
2021/01/18 01:29:25;;;;;;;17.45;15.63;;;25.30;59.80;;;;;;4958262;28;20237;-55
2021/01/18 01:31:57;;;;;;;18.52;16.58;;;25.40;59.70;;;;;;4958648;28;20583;-52
2021/01/18 01:34:27;;;;;;;16.67;14.80;;;25.40;59.60;;;;;;4959566;28;20335;-52
2021/01/18 01:36:58;;;;;;;17.70;15.40;;;25.40;59.90;;;;;;4969524;28;20230;-52
2021/01/18 01:39:28;;;;;;;16.33;14.63;;;25.40;59.70;;;;;;4959831;28;20241;-50
2021/01/18 01:41:58;;;;;;;15.90;14.13;;;25.50;59.60;;;;;;4961715;28;20225;-55
2021/01/18 01:44:29;;;;;;;16.50;14.35;;;25.50;59.50;;;;;;4959146;28;20245;-52
2021/01/18 01:47:00;;;;;;;15.93;14.43;;;25.50;59.60;;;;;;4958025;28;20233;-52
2021/01/18 01:49:31;;;;;;;18.75;14.43;;;25.60;59.60;;;;;;4958643;28;20225;-55
2021/01/18 01:52:02;;;;;;;18.38;16.45;;;25.60;59.50;;;;;;4957515;28;20236;-52
2021/01/18 01:54:34;;;;;;;20.45;18.30;;;25.60;59.40;;;;;;4960622;28;20282;-52
2021/01/18 01:57:05;;;;;;;29.73;23.00;;;25.70;59.40;;;;;;4959944;28;20261;-53
2021/01/18 01:59:35;;;;;;;23.55;21.08;;;25.70;59.40;;;;;;4958616;28;20240;-55
2021/01/18 02:02:07;;;;;;;18.42;16.35;;;25.80;58.90;;;;;;4965453;28;20237;-52
2021/01/18 02:04:37;;;;;;;16.40;14.70;;;25.80;59.00;;;;;;4966452;28;20233;-53
2021/01/18 02:07:23;;;;;;;18.38;16.52;;;25.90;58.80;;;;;;4964064;28;20257;-56
2021/01/18 02:09:53;;;;;;;17.83;15.65;;;25.90;58.60;;;;;;4962711;28;20319;-56
2021/01/18 02:12:24;;;;;;;19.73;14.70;;;26.00;58.20;;;;;;4965010;28;20241;-55
2021/01/18 02:15:03;;;;;;;16.38;14.63;;;26.00;58.30;;;;;;4965078;28;20244;-57
2021/01/18 02:17:39;;;;;;;15.38;13.80;;;26.00;58.50;;;;;;5026361;28;20817;-57
2021/01/18 02:20:42;;;;;;;17.63;12.95;;;26.10;58.50;;;;;;5024468;28;20285;-55
2021/01/18 02:23:45;;;;;;;14.60;13.13;;;26.10;58.60;;;;;;5002213;28;20369;-50
2021/01/18 02:26:18;;;;;;;16.75;13.93;;;26.20;58.60;;;;;;5022743;28;20321;-52
2021/01/18 02:29:06;;;;;;;18.73;15.95;;;26.20;58.10;;;;;;5021401;28;20234;-56
2021/01/18 02:32:07;;;;;;;17.05;15.27;;;26.30;57.80;;;;;;4961524;28;20827;-55
2021/01/18 02:35:03;;;;;;;17.40;15.70;;;26.30;57.60;;;;;;4892527;29;20410;-51
2021/01/18 02:37:59;;;;;;;16.35;14.65;;;26.40;57.60;;;;;;4899472;29;20242;-50
2021/01/18 02:40:33;;;;;;;15.80;14.18;;;26.40;57.70;;;;;;4845857;29;20250;-54
2021/01/18 02:43:05;;;;;;;20.63;15.77;;;26.40;57.60;;;;;;4903499;29;20285;-54
2021/01/18 02:45:36;;;;;;;14.23;12.70;;;26.50;57.60;;;;;;4910334;29;20234;-56
2021/01/18 02:48:07;;;;;;;17.27;15.45;;;26.50;57.70;;;;;;4864316;29;20225;-53
2021/01/18 02:50:38;;;;;;;17.33;15.48;;;26.60;57.40;;;;;;4872587;29;20239;-52
2021/01/18 02:53:11;;;;;;;15.07;13.60;;;26.60;57.30;;;;;;4837096;29;20607;-54
2021/01/18 02:55:41;;;;;;;14.27;12.77;;;26.60;57.30;;;;;;4826366;29;20282;-55
2021/01/18 02:58:12;;;;;;;15.43;13.82;;;26.70;57.60;;;;;;4809115;29;20253;-54
2021/01/18 03:00:43;;;;;;;13.73;12.38;;;26.80;57.50;;;;;;4838590;29;20694;-55
2021/01/18 03:03:17;;;;;;;15.93;14.23;;;26.80;57.40;;;;;;4835624;29;20259;-52
2021/01/18 03:05:54;;;;;;;15.77;14.07;;;26.90;57.20;;;;;;4861820;28;20318;-51
2021/01/18 03:08:29;;;;;;;18.02;16.23;;;27.00;57.00;;;;;;4868813;28;20731;-53
2021/01/18 03:11:03;;;;;;;22.08;16.92;;;27.00;56.70;;;;;;4877123;28;20255;-53
2021/01/18 03:13:34;;;;;;;18.17;16.27;;;27.10;56.20;;;;;;4850525;28;20237;-51
2021/01/18 03:16:10;;;;;;;18.42;16.63;;;27.20;56.40;;;;;;4850586;28;20237;-50
2021/01/18 03:18:41;;;;;;;18.48;16.52;;;27.20;56.00;;;;;;4908187;28;20237;-51
2021/01/18 03:21:12;;;;;;;17.05;15.38;;;27.30;55.80;;;;;;4941932;28;20230;-51
2021/01/18 03:23:43;;;;;;;16.58;15.02;;;27.30;55.90;;;;;;4948029;29;20248;-51
2021/01/18 03:26:14;;;;;;;15.52;14.02;;;27.30;55.80;;;;;;4942496;28;20234;-52
2021/01/18 03:28:45;;;;;;;17.90;16.10;;;27.40;56.00;;;;;;4935988;28;20240;-53
2021/01/18 03:31:20;;;;;;;17.60;15.80;;;27.40;55.60;;;;;;4930828;28;20245;-55
2021/01/18 03:33:50;;;;;;;16.88;15.05;;;27.40;55.40;;;;;;4940219;29;20249;-52
2021/01/18 03:36:21;;;;;;;18.17;15.73;;;27.50;55.50;;;;;;4931405;28;20617;-54
2021/01/18 03:38:52;;;;;;;17.27;15.57;;;27.50;55.20;;;;;;4938533;28;20237;-54
2021/01/18 03:41:23;;;;;;;19.67;17.88;;;27.60;55.00;;;;;;4936550;28;20238;-55
2021/01/18 03:43:53;;;;;;;18.77;16.70;;;27.60;54.80;;;;;;4948394;28;20708;-54
2021/01/18 03:46:24;;;;;;;16.27;14.68;;;27.70;54.80;;;;;;4968098;28;20319;-52
2021/01/18 03:48:55;;;;;;;15.75;14.25;;;27.70;54.80;;;;;;4970091;28;20239;-50
2021/01/18 03:51:32;;;;;;;16.52;14.93;;;27.80;54.80;;;;;;4969243;28;20262;-51
2021/01/18 03:54:05;;;;;;;15.05;13.35;;;27.80;54.20;;;;;;4928269;28;20238;-53
2021/01/18 03:56:40;;;;;;;15.93;14.43;;;27.90;54.50;;;;;;4927212;29;20365;-51
2021/01/18 03:59:10;;;;;;;16.67;15.05;;;27.90;54.10;;;;;;4928394;29;20303;-51
2021/01/18 04:01:41;;;;;;;15.43;13.95;;;28.00;54.00;;;;;;4922945;28;20772;-56
2021/01/18 04:04:12;;;;;;;14.27;12.80;;;28.00;53.90;;;;;;4926513;28;20400;-52
2021/01/18 04:06:43;;;;;;;14.48;13.13;;;28.10;54.30;;;;;;4928130;28;20312;-55
2021/01/18 04:09:15;;;;;;;14.93;13.43;;;28.10;54.40;;;;;;4928138;28;20237;-56
2021/01/18 04:11:47;;;;;;;16.48;14.52;;;28.20;54.30;;;;;;4926717;29;20316;-56
2021/01/18 04:14:17;;;;;;;28.33;24.98;;;28.30;54.20;;;;;;4928328;29;20238;-52
2021/01/18 04:16:48;;;;;;;32.53;26.35;;;28.40;54.00;;;;;;4920562;29;20366;-55
2021/01/18 04:19:19;;;;;;;27.00;22.15;;;28.50;53.90;;;;;;5027180;28;20230;-55
2021/01/18 04:21:49;;;;;;;22.58;20.30;;;28.60;53.40;;;;;;4956849;28;20233;-56
2021/01/18 04:24:21;;;;;;;18.65;16.48;;;28.60;53.70;;;;;;4997845;28;20281;-56
2021/01/18 04:26:52;;;;;;;16.00;14.35;;;28.80;53.10;;;;;;4958282;28;20235;-56
2021/01/18 04:29:22;;;;;;;16.88;15.27;;;28.80;52.70;;;;;;4977776;28;20311;-54
2021/01/18 04:31:53;;;;;;;17.73;15.52;;;28.90;52.50;;;;;;4963595;28;20705;-57
2021/01/18 04:34:23;;;;;;;16.25;14.63;;;29.00;52.40;;;;;;5001053;28;20238;-51
2021/01/18 04:36:54;;;;;;;17.08;15.38;;;29.10;52.70;;;;;;4978951;28;20233;-53
2021/01/18 04:39:26;;;;;;;16.00;14.30;;;29.10;52.40;;;;;;4967531;28;20233;-50
2021/01/18 04:41:58;;;;;;;16.30;14.57;;;29.20;52.30;;;;;;4958487;28;20228;-51
2021/01/18 04:44:28;;;;;;;16.63;14.45;;;29.30;51.90;;;;;;4966670;28;20681;-54
2021/01/18 04:46:59;;;;;;;18.48;14.77;;;29.30;51.80;;;;;;4960659;28;20245;-51
2021/01/18 04:49:30;;;;;;;15.43;13.80;;;29.40;51.60;;;;;;4959731;28;20697;-52
2021/01/18 04:52:00;;;;;;;15.63;13.95;;;29.40;51.40;;;;;;4963268;28;20232;-54
2021/01/18 04:54:33;;;;;;;16.13;14.63;;;29.50;51.40;;;;;;4975825;28;20597;-51
2021/01/18 04:57:11;;;;;;;14.13;12.75;;;29.60;51.00;;;;;;4979355;28;20222;-51
2021/01/18 04:59:43;;;;;;;15.93;14.30;;;29.60;51.30;;;;;;5018961;28;20708;-52
2021/01/18 05:02:17;;;;;;;15.50;14.10;;;29.60;51.10;;;;;;4997487;28;20570;-56
2021/01/18 05:04:48;;;;;;;17.20;15.48;;;29.70;50.50;;;;;;4995140;28;20315;-57
2021/01/18 05:07:53;;;;;;;15.68;14.07;;;29.80;50.30;;;;;;4971655;28;20309;-56
2021/01/18 05:10:28;;;;;;;15.35;13.60;;;29.80;50.10;;;;;;4970684;28;20294;-51
2021/01/18 05:13:01;;;;;;;15.07;13.50;;;29.90;50.30;;;;;;4965050;28;20225;-54
2021/01/18 05:15:31;;;;;;;14.77;13.27;;;29.90;50.00;;;;;;4973261;28;21122;-49
2021/01/18 05:18:07;;;;;;;15.55;14.05;;;30.00;50.30;;;;;;4924830;28;20321;-52
2021/01/18 05:20:37;;;;;;;13.93;12.45;;;30.00;50.10;;;;;;4921255;28;20321;-49
2021/01/18 05:23:08;;;;;;;13.55;12.23;;;30.00;50.50;;;;;;4930917;28;20272;-53
2021/01/18 05:25:40;;;;;;;14.48;13.05;;;30.10;50.70;;;;;;4930449;28;20242;-55
2021/01/18 05:28:10;;;;;;;17.38;14.45;;;30.20;50.60;;;;;;4920163;29;20768;-53
2021/01/18 05:30:41;;;;;;;14.05;12.65;;;30.30;49.60;;;;;;4930169;28;20238;-55
2021/01/18 05:33:13;;;;;;;15.00;13.60;;;30.40;49.70;;;;;;4964539;28;20232;-51
2021/01/18 05:35:47;;;;;;;13.75;12.52;;;30.50;49.40;;;;;;4971322;28;20237;-52
2021/01/18 05:38:17;;;;;;;14.32;12.82;;;30.60;49.60;;;;;;4964507;28;20240;-55
2021/01/18 05:40:49;;;;;;;14.63;13.23;;;30.60;49.40;;;;;;4971613;28;20343;-49
2021/01/18 05:43:20;;;;;;;14.52;13.10;;;30.70;49.20;;;;;;4970187;28;20372;-51
2021/01/18 05:45:51;;;;;;;15.05;13.68;;;30.80;49.10;;;;;;4965995;28;20333;-50
2021/01/18 05:48:28;;;;;;;16.33;13.30;;;30.90;48.90;;;;;;4976235;28;20240;-55
2021/01/18 05:50:59;;;;;;;14.05;12.75;;;31.00;48.70;;;;;;5022505;28;20226;-52
2021/01/18 05:53:30;;;;;;;13.57;12.05;;;31.00;48.50;;;;;;5026532;28;20234;-50
2021/01/18 05:56:18;;;;;;;13.70;12.40;;;31.10;48.70;;;;;;5023815;28;20406;-50
2021/01/18 05:58:48;;;;;;;13.48;12.32;;;31.20;48.30;;;;;;5024720;28;20237;-53
2021/01/18 06:01:37;;;;;;;15.18;13.88;;;31.20;48.50;;;;;;5021465;28;21006;-54
2021/01/18 06:04:11;;;;;;;13.13;11.80;;;31.30;47.90;;;;;;4992311;28;20229;-51
2021/01/18 06:06:43;;;;;;;14.75;13.25;;;31.40;48.20;;;;;;5024325;28;20249;-55
2021/01/18 06:09:13;;;;;;;14.32;13.00;;;31.40;48.10;;;;;;5021533;28;20313;-55
2021/01/18 06:11:46;;;;;;;15.50;13.77;;;31.50;47.90;;;;;;5026489;28;20325;-57
2021/01/18 06:14:17;;;;;;;14.80;13.40;;;31.50;47.40;;;;;;5028489;28;20234;-54
2021/01/18 06:16:48;;;;;;;15.30;13.80;;;31.60;47.20;;;;;;4952010;29;20237;-54
2021/01/18 06:19:23;;;;;;;13.18;11.77;;;31.60;46.70;;;;;;4946685;28;20952;-54
2021/01/18 06:21:54;;;;;;;13.27;11.68;;;31.70;47.00;;;;;;4944389;29;20906;-54
2021/01/18 06:24:28;;;;;;;13.65;12.43;;;31.80;47.30;;;;;;4887527;29;20673;-57
2021/01/18 06:27:00;;;;;;;13.23;11.77;;;31.80;47.20;;;;;;4892739;29;20238;-57
2021/01/18 06:29:41;;;;;;;12.98;11.77;;;31.80;46.80;;;;;;4905381;29;20238;-56
2021/01/18 06:32:13;;;;;;;13.73;12.30;;;31.90;46.70;;;;;;4909316;29;20234;-57
2021/01/18 06:34:45;;;;;;;13.85;12.55;;;32.00;46.10;;;;;;4869195;29;20239;-57
2021/01/18 06:37:21;;;;;;;12.77;11.60;;;32.00;46.30;;;;;;4873348;29;20255;-54
2021/01/18 06:39:57;;;;;;;12.35;11.23;;;32.10;46.40;;;;;;4876896;29;20629;-57
2021/01/18 06:42:29;;;;;;;12.15;10.80;;;32.10;46.20;;;;;;4874019;29;20263;-57
2021/01/18 06:45:00;;;;;;;14.32;12.77;;;32.20;46.30;;;;;;4873379;29;20279;-56
2021/01/18 06:47:31;;;;;;;14.38;12.90;;;32.20;46.00;;;;;;4883492;28;20234;-54
2021/01/18 06:50:03;;;;;;;14.00;12.60;;;32.30;45.80;;;;;;4890848;28;20257;-53
2021/01/18 06:52:33;;;;;;;17.20;13.88;;;32.40;45.60;;;;;;4896612;28;20263;-57
2021/01/18 06:55:06;;;;;;;15.00;13.50;;;32.40;45.00;;;;;;4912786;28;20238;-54
2021/01/18 06:57:54;;;;;;;13.63;12.23;;;32.40;45.10;;;;;;4953547;28;20320;-55
2021/01/18 07:00:24;;;;;;;13.88;12.57;;;32.50;45.30;;;;;;4968188;28;20282;-57
2021/01/18 07:02:57;;;;;;;16.20;13.07;;;32.50;45.20;;;;;;4970235;28;20583;-57
2021/01/18 07:05:35;;;;;;;13.05;11.85;;;32.50;45.10;;;;;;4966322;28;20290;-57
2021/01/18 07:08:16;;;;;;;14.48;12.63;;;32.60;44.90;;;;;;4966143;28;20311;-56
2021/01/18 07:10:47;;;;;;;15.77;12.40;;;32.60;44.60;;;;;;4963402;28;20252;-57
2021/01/18 07:13:20;;;;;;;13.68;11.80;;;32.70;44.40;;;;;;4977094;28;20722;-57
2021/01/18 07:15:51;;;;;;;14.80;12.77;;;32.70;44.10;;;;;;4965505;28;20236;-56
2021/01/18 07:18:21;;;;;;;12.80;11.55;;;32.70;43.80;;;;;;4967297;28;20723;-55
2021/01/18 07:20:52;;;;;;;12.45;11.30;;;32.70;44.30;;;;;;4960405;28;20236;-56
2021/01/18 07:23:31;;;;;;;13.38;12.15;;;32.70;44.30;;;;;;4944673;29;20233;-54
2021/01/18 07:26:37;;;;;;;13.85;12.30;;;32.80;44.00;;;;;;4946212;28;20317;-53
2021/01/18 07:29:09;;;;;;;13.35;11.95;;;32.80;44.00;;;;;;4943646;28;20229;-54
2021/01/18 07:31:42;;;;;;;13.40;12.20;;;32.80;43.80;;;;;;4945133;28;20272;-56
2021/01/18 07:34:15;;;;;;;12.13;10.93;;;32.90;43.80;;;;;;4888800;28;20235;-53
2021/01/18 07:36:46;;;;;;;13.27;11.98;;;32.90;44.00;;;;;;4890647;29;20255;-57
2021/01/18 07:39:26;;;;;;;12.75;11.55;;;32.90;43.60;;;;;;4888007;29;20338;-56
2021/01/18 07:41:57;;;;;;;14.93;12.15;;;33.00;43.60;;;;;;4887693;29;20231;-53
2021/01/18 07:44:45;;;;;;;12.38;11.20;;;33.00;43.40;;;;;;4886516;28;20343;-55
2021/01/18 07:47:16;;;;;;;12.43;10.70;;;33.10;43.70;;;;;;4895119;28;20685;-57
2021/01/18 07:49:48;;;;;;;13.52;12.15;;;33.10;43.20;;;;;;4926145;28;20226;-55
2021/01/18 07:52:35;;;;;;;12.02;10.70;;;33.10;42.70;;;;;;4917956;28;20226;-57
2021/01/18 07:55:12;;;;;;;12.85;11.65;;;33.10;43.10;;;;;;4924854;28;20328;-57
2021/01/18 07:57:43;;;;;;;13.25;11.95;;;33.20;42.70;;;;;;4851754;29;20232;-57
2021/01/18 08:00:34;;;;;;;13.80;12.30;;;33.20;42.80;;;;;;4853138;29;20243;-57
2021/01/18 08:03:29;;;;;;;11.30;10.30;;;33.20;43.00;;;;;;4858682;29;20241;-57
2021/01/18 08:06:07;;;;;;;11.13;10.02;;;33.20;43.10;;;;;;4892670;29;20223;-53
2021/01/18 08:08:38;;;;;;;13.35;12.00;;;33.30;43.60;;;;;;4903923;28;20649;-55
2021/01/18 08:11:15;;;;;;;12.77;11.57;;;33.30;43.50;;;;;;4908108;29;20718;-57
2021/01/18 08:13:51;;;;;;;13.90;12.52;;;33.40;43.10;;;;;;4904764;28;20238;-56
2021/01/18 08:16:26;;;;;;;13.52;12.13;;;33.50;42.20;;;;;;4901297;28;20243;-51
2021/01/18 08:18:59;;;;;;;13.68;12.35;;;33.50;42.40;;;;;;4906622;29;20302;-51
2021/01/18 08:21:46;;;;;;;13.15;11.98;;;33.50;42.00;;;;;;4934980;28;20243;-53
2021/01/18 08:24:34;;;;;;;12.95;11.73;;;33.60;42.30;;;;;;4903030;28;20741;-54
2021/01/18 08:27:04;;;;;;;13.70;12.40;;;33.60;42.10;;;;;;4900626;28;20230;-57
2021/01/18 08:29:53;;;;;;;13.30;11.95;;;33.70;42.10;;;;;;4902997;28;20233;-55
2021/01/18 08:32:39;;;;;;;12.93;11.52;;;33.70;42.50;;;;;;4901348;28;20246;-57
2021/01/18 08:35:21;;;;;;;14.90;13.40;;;33.80;42.60;;;;;;4915332;28;20621;-55
2021/01/18 08:37:55;;;;;;;12.93;11.57;;;33.80;41.90;;;;;;4922159;28;20276;-55
2021/01/18 08:40:33;;;;;;;13.23;11.95;;;33.90;42.20;;;;;;4921190;29;20238;-55
2021/01/18 08:43:03;;;;;;;14.35;12.65;;;33.90;42.00;;;;;;5016383;28;20326;-55
2021/01/18 08:45:36;;;;;;;13.82;12.48;;;33.90;41.90;;;;;;5019496;28;20400;-54
2021/01/18 08:48:09;;;;;;;13.35;12.05;;;34.00;41.40;;;;;;4964668;28;20697;-57
2021/01/18 08:50:42;;;;;;;13.13;11.80;;;34.00;41.40;;;;;;4965451;28;20250;-54
2021/01/18 08:53:34;;;;;;;14.13;12.48;;;34.00;41.40;;;;;;4967630;28;20232;-56
2021/01/18 08:56:05;;;;;;;14.05;12.70;;;34.10;41.40;;;;;;4965190;28;20272;-56
2021/01/18 08:58:42;;;;;;;13.90;12.50;;;34.10;41.20;;;;;;4959811;28;20984;-55
2021/01/18 09:01:17;;;;;;;14.10;12.60;;;34.10;41.00;;;;;;4959193;28;20229;-57
2021/01/18 09:03:56;;;;;;;13.50;12.02;;;34.10;41.20;;;;;;4965308;28;20260;-55
2021/01/18 09:06:27;;;;;;;12.95;10.95;;;34.10;41.30;;;;;;4957164;28;20240;-54
2021/01/18 09:09:04;;;;;;;13.00;11.70;;;34.10;41.70;;;;;;4915951;28;20245;-56
2021/01/18 09:11:34;;;;;;;13.90;12.50;;;34.10;41.50;;;;;;4922295;28;20249;-55
2021/01/18 09:14:05;;;;;;;13.48;11.73;;;34.20;41.30;;;;;;4918549;28;20237;-52
2021/01/18 09:16:36;;;;;;;13.23;11.82;;;34.20;41.20;;;;;;4917389;28;20305;-55
2021/01/18 09:19:08;;;;;;;14.27;12.60;;;34.20;40.70;;;;;;4889266;28;20333;-56
2021/01/18 09:21:38;;;;;;;13.32;12.05;;;34.20;40.80;;;;;;4923378;28;20245;-56
2021/01/18 09:24:09;;;;;;;13.48;12.18;;;34.20;40.80;;;;;;4922501;28;20253;-53
2021/01/18 09:26:40;;;;;;;15.25;12.55;;;34.20;40.40;;;;;;4918670;28;20264;-55
2021/01/18 09:29:10;;;;;;;12.57;11.27;;;34.20;40.50;;;;;;4876230;28;20256;-54
2021/01/18 09:31:41;;;;;;;12.75;11.35;;;34.20;40.40;;;;;;4895714;28;20252;-53
2021/01/18 09:34:16;;;;;;;11.90;10.80;;;34.20;40.40;;;;;;4881946;28;20238;-55
2021/01/18 09:36:49;;;;;;;11.75;10.55;;;34.20;40.40;;;;;;4875499;28;20234;-56
2021/01/18 09:39:22;;;;;;;12.55;11.45;;;34.20;40.80;;;;;;4867847;28;20247;-57
2021/01/18 09:42:12;;;;;;;14.25;10.13;;;34.30;40.30;;;;;;4867270;28;20246;-55
2021/01/18 09:44:43;;;;;;;11.20;10.15;;;34.30;40.40;;;;;;4943846;28;20282;-52
2021/01/18 09:47:14;;;;;;;10.50;9.60;;;34.30;40.20;;;;;;4943568;28;20317;-57
2021/01/18 09:49:46;;;;;;;10.27;9.20;;;34.30;41.00;;;;;;4891992;29;20257;-57
2021/01/18 09:52:17;;;;;;;11.70;10.60;;;34.30;40.20;;;;;;4930376;29;20274;-58
2021/01/18 09:54:49;;;;;;;13.82;12.43;;;34.40;40.00;;;;;;4875025;29;20236;-57
2021/01/18 09:57:19;;;;;;;13.25;11.93;;;34.40;40.00;;;;;;4875954;29;20236;-57
2021/01/18 09:59:49;;;;;;;12.88;11.57;;;34.40;40.10;;;;;;4889244;29;20321;-57
2021/01/18 10:02:20;;;;;;;12.45;11.23;;;34.40;40.00;;;;;;4816852;29;20318;-57
2021/01/18 10:04:52;;;;;;;11.77;10.68;;;34.40;40.20;;;;;;4783561;29;20267;-57
2021/01/18 10:07:24;;;;;;;12.70;11.43;;;34.40;40.10;;;;;;4783735;29;20239;-57
2021/01/18 10:09:56;;;;;;;14.68;11.63;;;34.30;39.80;;;;;;4795122;29;20235;-55
2021/01/18 10:12:27;;;;;;;12.10;10.80;;;34.30;39.80;;;;;;4796736;29;20307;-55
2021/01/18 10:14:58;;;;;;;11.93;10.82;;;34.20;40.00;;;;;;4791155;29;20238;-56
2021/01/18 10:17:32;;;;;;;11.93;10.82;;;34.20;40.30;;;;;;4742752;30;20260;-52
2021/01/18 10:20:08;;;;;;;12.27;11.00;;;34.20;40.30;;;;;;4761537;29;20244;-53
2021/01/18 10:22:39;;;;;;;13.63;12.15;;;34.20;40.40;;;;;;4819372;29;20695;-54
2021/01/18 10:25:10;;;;;;;12.15;10.40;;;34.20;40.30;;;;;;4824314;29;20245;-53
2021/01/18 10:27:49;;;;;;;11.88;10.68;;;34.20;40.70;;;;;;4841460;29;20670;-53
2021/01/18 10:30:20;;;;;;;13.88;12.38;;;34.30;41.00;;;;;;4807531;29;20329;-53
2021/01/18 10:32:52;;;;;;;13.57;12.27;;;34.40;40.60;;;;;;4837004;29;20237;-54
2021/01/18 10:35:29;;;;;;;13.82;12.35;;;34.60;40.30;;;;;;4917307;29;20605;-53
2021/01/18 10:38:12;;;;;;;12.85;11.65;;;34.80;39.70;;;;;;4929782;29;20226;-56
2021/01/18 10:40:45;;;;;;;12.20;11.10;;;34.90;39.60;;;;;;4954219;28;20238;-55
2021/01/18 10:43:15;;;;;;;13.30;12.00;;;34.90;39.20;;;;;;4982257;28;20259;-53
2021/01/18 10:45:45;;;;;;;14.32;12.85;;;34.90;38.90;;;;;;4945962;29;20331;-57
2021/01/18 10:48:15;;;;;;;13.68;11.10;;;34.80;38.90;;;;;;4925771;28;20527;-57
2021/01/18 10:50:55;;;;;;;12.80;11.43;;;34.70;38.90;;;;;;4891663;29;20235;-57
2021/01/18 10:53:30;;;;;;;14.27;12.88;;;34.60;38.90;;;;;;4896986;29;20250;-52
2021/01/18 10:56:15;;;;;;;14.23;12.65;;;34.40;39.10;;;;;;4947253;29;20233;-55
2021/01/18 10:58:46;;;;;;;12.82;11.60;;;34.20;39.00;;;;;;4947100;29;20446;-54
2021/01/18 11:01:16;;;;;;;12.75;11.45;;;34.10;39.20;;;;;;4889067;29;20704;-57
2021/01/18 11:03:47;;;;;;;12.77;11.45;;;33.80;39.50;;;;;;4891186;29;20242;-51
2021/01/18 11:06:20;;;;;;;14.15;12.75;;;33.60;39.70;;;;;;4891608;29;20812;-56
2021/01/18 11:08:54;;;;;;;17.00;14.68;;;33.40;40.00;;;;;;4890163;29;20234;-57
2021/01/18 11:11:25;;;;;;;16.30;14.60;;;33.20;40.30;;;;;;4887517;29;20235;-52
2021/01/18 11:14:01;;;;;;;14.82;13.32;;;33.00;40.60;;;;;;4891378;29;20235;-56
2021/01/18 11:16:31;;;;;;;15.23;12.75;;;32.80;40.80;;;;;;4905032;29;20241;-55
2021/01/18 11:19:03;;;;;;;14.35;12.18;;;32.60;41.10;;;;;;4927360;29;20233;-51
2021/01/18 11:21:34;;;;;;;13.60;12.00;;;32.40;41.40;;;;;;4921910;28;20233;-54
2021/01/18 11:24:05;;;;;;;13.30;11.95;;;32.30;41.70;;;;;;4925210;28;20246;-52
2021/01/18 11:26:36;;;;;;;16.25;11.85;;;32.10;42.20;;;;;;4924034;28;20241;-56
2021/01/18 11:29:06;;;;;;;13.32;12.00;;;32.00;42.20;;;;;;4923440;28;20244;-55
2021/01/18 11:31:38;;;;;;;13.15;11.77;;;31.90;42.40;;;;;;4939508;28;20264;-54
2021/01/18 11:34:11;;;;;;;13.32;11.95;;;31.80;42.70;;;;;;4979276;28;20225;-55
2021/01/18 11:36:43;;;;;;;15.25;12.25;;;31.70;42.80;;;;;;4965344;28;20290;-52
2021/01/18 11:39:14;;;;;;;15.45;12.02;;;31.60;43.10;;;;;;4965431;28;20802;-51
2021/01/18 11:41:45;;;;;;;15.90;12.88;;;31.50;43.30;;;;;;4995712;28;20262;-56
2021/01/18 11:44:15;;;;;;;15.90;12.20;;;31.40;43.50;;;;;;4965331;28;20648;-54
2021/01/18 11:46:45;;;;;;;14.23;11.85;;;31.30;43.60;;;;;;4973994;28;20233;-53
2021/01/18 11:49:16;;;;;;;12.57;11.27;;;31.30;43.80;;;;;;4959732;28;20244;-56
2021/01/18 11:51:48;;;;;;;12.43;11.23;;;31.20;43.90;;;;;;4958688;28;20591;-55
2021/01/18 11:54:18;;;;;;;13.38;12.07;;;31.10;44.00;;;;;;4963444;28;20228;-57
2021/01/18 11:56:49;;;;;;;13.65;12.23;;;31.10;44.20;;;;;;4962268;28;20297;-56
2021/01/18 11:59:19;;;;;;;12.75;11.45;;;31.00;44.30;;;;;;4969324;28;20232;-56
2021/01/18 12:01:50;;;;;;;13.13;11.35;;;31.00;44.30;;;;;;4963392;28;20240;-57
2021/01/18 12:04:21;;;;;;;12.45;11.23;;;30.90;44.40;;;;;;4989902;28;20649;-55
2021/01/18 12:06:52;;;;;;;12.23;10.95;;;30.90;44.40;;;;;;4960989;28;20239;-56
2021/01/18 12:09:24;;;;;;;11.77;10.55;;;30.80;44.70;;;;;;4965841;28;20236;-57
2021/01/18 12:11:56;;;;;;;12.98;11.70;;;30.80;45.00;;;;;;4967018;28;20652;-55
2021/01/18 12:14:26;;;;;;;12.70;11.27;;;30.70;44.80;;;;;;4962816;28;20327;-54
2021/01/18 12:17:01;;;;;;;11.80;10.68;;;30.60;44.80;;;;;;4961059;28;20278;-52
2021/01/18 12:19:32;;;;;;;12.48;11.27;;;30.60;44.90;;;;;;5018436;28;20256;-55
2021/01/18 12:22:04;;;;;;;12.80;10.90;;;30.60;45.00;;;;;;5021261;28;20292;-56
2021/01/18 12:24:35;;;;;;;14.32;11.30;;;30.50;45.10;;;;;;5018252;28;20250;-57
2021/01/18 12:27:06;;;;;;;13.32;11.93;;;30.50;45.20;;;;;;5018284;28;20226;-56
2021/01/18 12:29:37;;;;;;;12.45;11.27;;;30.40;45.30;;;;;;5017005;28;20285;-56
2021/01/18 12:32:07;;;;;;;13.63;11.35;;;30.30;45.30;;;;;;5016884;28;20964;-51
2021/01/18 12:34:38;;;;;;;13.15;11.77;;;30.30;45.50;;;;;;5021416;28;20368;-55
2021/01/18 12:37:10;;;;;;;18.77;16.52;;;30.30;45.60;;;;;;5012945;28;20242;-56
2021/01/18 12:39:40;;;;;;;21.88;15.82;;;30.20;45.80;;;;;;5020517;28;20234;-55
2021/01/18 12:42:15;;;;;;;16.58;14.88;;;30.20;45.80;;;;;;5017173;28;20237;-54
2021/01/18 12:44:48;;;;;;;16.65;14.63;;;30.10;45.90;;;;;;4966334;28;20232;-54
2021/01/18 12:47:18;;;;;;;24.50;20.58;;;30.10;46.10;;;;;;4961376;28;20716;-53
2021/01/18 12:49:49;;;;;;;21.83;17.83;;;30.10;46.30;;;;;;4956218;28;20319;-56
2021/01/18 12:52:21;;;;;;;19.35;16.15;;;30.00;46.20;;;;;;4960868;28;20643;-55
2021/01/18 12:54:52;;;;;;;16.85;14.88;;;30.00;46.40;;;;;;4963260;28;20232;-52
2021/01/18 12:57:23;;;;;;;15.30;13.13;;;30.00;46.50;;;;;;4974839;28;20640;-53
2021/01/18 12:59:54;;;;;;;14.18;12.63;;;29.90;46.60;;;;;;4964432;28;20236;-52